Time;durP1;ratioP1;P1;durP2;ratioP2;P2;SDS_P1;SDS_P2;PMS_P1;PMS_P2;Temp;Humidity;BMP_temperature;BMP_pressure;BME280_temperature;BME280_humidity;BME280_pressure;Samples;Min_cycle;Max_cycle;Signal;HPM_P1;HPM_P2
2022/05/20 00:00:06;;;;;;;7.47;2.58;;;11.10;99.90;;;;;;5021790;28;20065;-67
2022/05/20 00:02:34;;;;;;;9.20;3.50;;;11.10;99.90;;;;;;5013486;28;20647;-67
2022/05/20 00:05:01;;;;;;;10.40;3.40;;;11.20;99.90;;;;;;5021274;28;20068;-67
2022/05/20 00:07:28;;;;;;;12.68;3.50;;;11.20;99.90;;;;;;5021870;28;20065;-67
2022/05/20 00:09:55;;;;;;;11.20;3.13;;;11.20;99.90;;;;;;5025760;28;20044;-67
2022/05/20 00:12:23;;;;;;;8.50;2.67;;;11.20;99.90;;;;;;5013672;28;20383;-67
2022/05/20 00:14:50;;;;;;;9.38;2.40;;;11.20;99.90;;;;;;5022047;28;20442;-67
2022/05/20 00:17:17;;;;;;;10.48;2.92;;;11.20;99.90;;;;;;5028276;28;20108;-67
2022/05/20 00:19:44;;;;;;;5.70;2.08;;;11.20;99.90;;;;;;5017463;28;20021;-67
2022/05/20 00:22:12;;;;;;;8.38;2.80;;;11.30;99.90;;;;;;5025883;28;20550;-67
2022/05/20 00:25:45;;;;;;;13.45;3.42;;;11.40;99.90;;;;;;5025863;28;20025;-68
2022/05/20 00:27:26;;;;;;;14.30;2.95;;;11.40;99.90;;;;;;5020570;28;20074;-67
2022/05/20 00:29:53;;;;;;;13.02;5.15;;;11.40;99.90;;;;;;5030285;28;20021;-67
2022/05/20 00:32:20;;;;;;;10.55;4.32;;;11.40;99.90;;;;;;5021332;28;20097;-67
2022/05/20 00:34:48;;;;;;;13.88;4.57;;;11.50;99.90;;;;;;5035775;28;20041;-67
2022/05/20 00:37:15;;;;;;;9.18;3.60;;;11.50;99.90;;;;;;5025612;28;20022;-67
2022/05/20 00:39:42;;;;;;;17.38;3.60;;;11.50;99.90;;;;;;5014918;28;20446;-66
2022/05/20 00:42:16;;;;;;;9.68;3.38;;;11.60;99.90;;;;;;5021389;28;20466;-66
2022/05/20 00:44:43;;;;;;;10.63;3.83;;;11.50;99.90;;;;;;5021710;28;20049;-67
2022/05/20 00:47:13;;;;;;;6.60;2.95;;;11.50;99.90;;;;;;5021742;28;20387;-67
2022/05/20 00:49:45;;;;;;;15.00;3.25;;;11.50;99.90;;;;;;5022596;28;20113;-67
2022/05/20 00:52:16;;;;;;;14.10;3.50;;;11.50;99.90;;;;;;5018920;28;20096;-67
2022/05/20 00:54:50;;;;;;;6.38;2.67;;;11.60;99.90;;;;;;5025293;28;20095;-67
2022/05/20 00:57:41;;;;;;;11.43;3.05;;;11.70;99.90;;;;;;5015869;28;20022;-67
2022/05/20 01:00:12;;;;;;;11.00;3.05;;;11.70;99.90;;;;;;5017010;28;20113;-67
2022/05/20 01:02:40;;;;;;;13.25;3.08;;;11.70;99.90;;;;;;5016989;28;20072;-67
2022/05/20 01:05:27;;;;;;;17.92;3.45;;;11.80;99.90;;;;;;5024983;28;20381;-67
2022/05/20 01:07:57;;;;;;;11.70;3.25;;;11.90;99.90;;;;;;5021985;28;20060;-67
2022/05/20 01:10:24;;;;;;;12.38;3.72;;;12.10;99.90;;;;;;5023843;28;20025;-67
2022/05/20 01:12:53;;;;;;;16.02;2.60;;;12.20;99.90;;;;;;5017716;28;20049;-67
2022/05/20 01:15:21;;;;;;;10.68;2.90;;;12.20;99.90;;;;;;5014298;28;20040;-67
2022/05/20 01:17:51;;;;;;;12.63;2.92;;;12.30;99.90;;;;;;5023720;28;20053;-67
2022/05/20 01:20:36;;;;;;;8.82;2.55;;;12.20;99.90;;;;;;5018906;28;20038;-67
2022/05/20 01:23:07;;;;;;;7.78;2.83;;;12.10;99.90;;;;;;5024354;28;20037;-67
2022/05/20 01:25:35;;;;;;;11.30;3.10;;;12.10;99.90;;;;;;5011460;28;20490;-67
2022/05/20 01:28:02;;;;;;;8.30;3.83;;;12.20;99.90;;;;;;5019364;28;20038;-67
2022/05/20 01:30:31;;;;;;;12.98;3.20;;;12.20;99.90;;;;;;5020434;28;20097;-67
2022/05/20 01:33:04;;;;;;;13.07;3.03;;;12.10;99.90;;;;;;5012550;28;20041;-68
2022/05/20 01:35:44;;;;;;;14.73;3.97;;;12.20;99.90;;;;;;5016230;28;20018;-67
2022/05/20 01:38:12;;;;;;;11.73;3.75;;;12.10;99.90;;;;;;5025718;28;20033;-67
2022/05/20 01:41:04;;;;;;;8.77;2.92;;;12.20;99.90;;;;;;5011437;28;20033;-67
2022/05/20 01:43:56;;;;;;;17.08;4.18;;;12.30;99.90;;;;;;5014786;28;20033;-67
2022/05/20 01:46:34;;;;;;;17.42;3.58;;;12.30;99.90;;;;;;5020654;28;20029;-67
2022/05/20 01:49:19;;;;;;;12.40;4.13;;;12.50;99.90;;;;;;5018931;28;20491;-68
2022/05/20 01:51:51;;;;;;;11.45;5.05;;;12.50;99.90;;;;;;5024574;28;20132;-67
2022/05/20 01:54:54;;;;;;;17.30;5.10;;;12.50;99.90;;;;;;5021648;28;20025;-67
2022/05/20 01:57:40;;;;;;;11.40;4.75;;;12.60;99.90;;;;;;5025757;28;20057;-67
2022/05/20 02:00:14;;;;;;;14.75;4.40;;;12.60;99.90;;;;;;5024078;28;20165;-67
2022/05/20 02:03:05;;;;;;;10.57;3.25;;;12.80;99.90;;;;;;5023037;28;20116;-66
2022/05/20 02:05:39;;;;;;;9.52;3.05;;;12.80;99.90;;;;;;5018962;28;20052;-67
2022/05/20 02:08:29;;;;;;;10.32;3.10;;;12.80;99.90;;;;;;5025380;28;20037;-67
2022/05/20 02:11:08;;;;;;;10.85;3.42;;;12.90;99.90;;;;;;5022987;28;20025;-67
2022/05/20 02:13:40;;;;;;;11.02;3.40;;;12.80;99.90;;;;;;5028496;28;20024;-66
2022/05/20 02:16:20;;;;;;;8.48;3.05;;;12.80;99.90;;;;;;5023100;28;20100;-66
2022/05/20 02:18:59;;;;;;;6.82;3.10;;;12.90;99.90;;;;;;5022945;28;20381;-66
2022/05/20 02:21:29;;;;;;;9.93;3.90;;;12.90;99.90;;;;;;5023711;28;20030;-66
2022/05/20 02:24:01;;;;;;;10.05;3.70;;;13.00;99.90;;;;;;5023999;28;20030;-66
2022/05/20 02:26:33;;;;;;;8.73;3.63;;;13.00;99.90;;;;;;5022715;28;20500;-66
2022/05/20 02:29:11;;;;;;;11.07;3.58;;;13.00;99.90;;;;;;5030688;28;20063;-66
2022/05/20 02:31:50;;;;;;;8.80;3.50;;;13.10;99.90;;;;;;5023201;28;20025;-66
2022/05/20 02:34:17;;;;;;;13.35;3.65;;;13.10;99.90;;;;;;5020144;28;20018;-66
2022/05/20 02:36:45;;;;;;;12.90;4.03;;;13.30;99.90;;;;;;5020251;28;20034;-67
2022/05/20 02:39:20;;;;;;;11.27;3.30;;;13.20;99.90;;;;;;5016182;28;20060;-67
2022/05/20 02:41:49;;;;;;;10.20;3.95;;;13.10;99.90;;;;;;5025373;28;20029;-67
2022/05/20 02:44:17;;;;;;;8.70;3.70;;;12.90;99.90;;;;;;5028237;28;20032;-66
2022/05/20 02:46:47;;;;;;;11.48;3.63;;;12.90;99.90;;;;;;5030147;28;20067;-67
2022/05/20 02:49:14;;;;;;;11.60;3.60;;;12.80;99.90;;;;;;5020309;28;20155;-67
2022/05/20 02:51:42;;;;;;;13.32;4.10;;;12.90;99.90;;;;;;5019013;28;20057;-67
2022/05/20 02:54:09;;;;;;;16.73;3.65;;;12.90;99.90;;;;;;5032086;28;20026;-67
2022/05/20 02:56:38;;;;;;;12.82;3.00;;;13.00;99.90;;;;;;5031584;28;20480;-67
2022/05/20 03:04:36;;;;;;;10.77;2.78;;;13.00;99.90;;;;;;5020886;28;20068;-67
2022/05/20 03:07:03;;;;;;;12.43;2.88;;;13.00;99.90;;;;;;5018020;28;20076;-67
2022/05/20 03:09:31;;;;;;;14.93;3.55;;;13.10;99.90;;;;;;5016685;28;20037;-66
2022/05/20 03:11:58;;;;;;;12.02;3.83;;;13.20;99.90;;;;;;5027012;28;20034;-66
2022/05/20 03:14:26;;;;;;;13.15;3.50;;;13.20;99.90;;;;;;5033625;28;20037;-66
2022/05/20 03:16:53;;;;;;;17.95;3.70;;;13.20;99.90;;;;;;5027988;28;20026;-67
2022/05/20 03:19:21;;;;;;;16.13;2.97;;;13.20;99.90;;;;;;5016834;28;20556;-66
2022/05/20 03:21:49;;;;;;;10.52;2.30;;;13.30;99.90;;;;;;5027222;28;20041;-67
2022/05/20 03:24:17;;;;;;;12.10;3.22;;;13.30;99.90;;;;;;5016229;28;20037;-67
2022/05/20 03:26:44;;;;;;;12.18;3.00;;;13.30;99.90;;;;;;5020806;28;20040;-67
2022/05/20 03:29:11;;;;;;;14.93;2.47;;;13.40;99.90;;;;;;5019969;28;20116;-67
2022/05/20 03:31:40;;;;;;;12.88;3.33;;;13.40;99.90;;;;;;5023029;28;20026;-67
2022/05/20 03:34:09;;;;;;;16.25;3.60;;;13.40;99.90;;;;;;5022565;28;20032;-67
2022/05/20 03:36:41;;;;;;;10.80;3.00;;;13.50;99.90;;;;;;5026083;28;20021;-67
2022/05/20 03:39:10;;;;;;;14.80;3.65;;;13.60;99.90;;;;;;5019242;28;20029;-67
2022/05/20 03:41:38;;;;;;;13.23;3.55;;;13.50;99.90;;;;;;5013854;28;20037;-67
2022/05/20 03:44:08;;;;;;;11.73;3.28;;;13.50;99.90;;;;;;5026525;28;20037;-67
2022/05/20 03:46:41;;;;;;;11.35;3.67;;;13.50;99.90;;;;;;5013029;28;20426;-67
2022/05/20 03:49:08;;;;;;;13.70;3.72;;;13.50;99.90;;;;;;5020718;28;20048;-68
2022/05/20 03:51:37;;;;;;;6.88;2.80;;;13.60;99.90;;;;;;5026737;28;20026;-67
2022/05/20 03:54:05;;;;;;;10.65;2.90;;;13.50;99.90;;;;;;5021012;28;20046;-67
2022/05/20 03:56:32;;;;;;;11.55;2.92;;;13.60;99.90;;;;;;5020721;28;20010;-67
2022/05/20 03:59:00;;;;;;;11.27;3.25;;;13.70;99.90;;;;;;5025259;28;20025;-67
2022/05/20 04:04:12;;;;;;;12.52;3.33;;;13.80;99.90;;;;;;5021056;28;20091;-67
2022/05/20 04:06:40;;;;;;;14.20;4.07;;;13.90;99.90;;;;;;5017600;28;20026;-68
2022/05/20 04:09:07;;;;;;;14.18;3.97;;;14.00;99.90;;;;;;5025564;28;20042;-67
2022/05/20 04:11:34;;;;;;;7.57;2.75;;;14.00;99.90;;;;;;5023047;28;20018;-67
2022/05/20 04:14:02;;;;;;;9.68;3.15;;;14.10;99.90;;;;;;5021114;28;20037;-67
2022/05/20 04:16:29;;;;;;;13.45;3.83;;;14.00;99.90;;;;;;5026902;28;20017;-67
2022/05/20 04:18:57;;;;;;;13.38;3.30;;;14.00;99.90;;;;;;5013253;28;20091;-67
2022/05/20 04:21:24;;;;;;;10.65;3.58;;;14.10;99.90;;;;;;5020595;28;20394;-67
2022/05/20 04:23:51;;;;;;;9.18;3.45;;;14.10;99.90;;;;;;5018448;28;20538;-67
2022/05/20 04:26:19;;;;;;;11.23;3.60;;;14.10;99.90;;;;;;5030661;28;20060;-67
2022/05/20 04:28:47;;;;;;;9.25;4.25;;;14.10;99.90;;;;;;5028204;28;20517;-67
2022/05/20 04:31:14;;;;;;;14.77;4.38;;;14.20;99.90;;;;;;5029788;28;20414;-67
2022/05/20 04:33:46;;;;;;;15.13;3.97;;;14.20;99.90;;;;;;5025885;28;20025;-67
2022/05/20 04:36:13;;;;;;;14.00;4.40;;;14.20;99.90;;;;;;5024890;28;20470;-67
2022/05/20 04:38:40;;;;;;;13.20;4.32;;;14.20;99.90;;;;;;5017703;28;20493;-66
2022/05/20 04:49:24;;;;;;;9.48;3.83;;;14.20;99.90;;;;;;5017932;28;20122;-65
2022/05/20 04:51:51;;;;;;;8.93;2.92;;;14.30;99.90;;;;;;5016763;28;20455;-66
2022/05/20 04:57:04;;;;;;;12.32;3.20;;;14.30;99.90;;;;;;5014353;28;20080;-66
2022/05/20 04:59:38;;;;;;;11.38;2.35;;;14.30;99.90;;;;;;5018935;28;20033;-65
2022/05/20 05:02:05;;;;;;;;;;;14.30;99.90;;;;;;5024059;28;20022;-65
2022/05/20 05:04:32;;;;;;;11.25;2.25;;;14.30;99.90;;;;;;5023248;28;20020;-66
2022/05/20 05:07:00;;;;;;;13.63;2.83;;;14.40;99.90;;;;;;5016822;28;20025;-67
2022/05/20 05:09:27;;;;;;;10.90;2.80;;;14.50;99.90;;;;;;5023892;28;20042;-67
2022/05/20 05:11:54;;;;;;;12.20;2.53;;;14.40;99.90;;;;;;5028040;28;20034;-67
2022/05/20 05:14:22;;;;;;;17.15;2.40;;;14.50;99.90;;;;;;5012616;28;20018;-67
2022/05/20 05:16:49;;;;;;;13.70;2.58;;;14.50;99.90;;;;;;5026710;28;20386;-67
2022/05/20 05:19:16;;;;;;;13.02;2.78;;;14.50;99.90;;;;;;5012637;28;20386;-67
2022/05/20 05:21:43;;;;;;;10.38;2.38;;;14.40;99.90;;;;;;5013025;28;20025;-67
2022/05/20 05:24:11;;;;;;;14.63;3.28;;;14.50;99.90;;;;;;5012190;28;20042;-67
2022/05/20 05:26:40;;;;;;;13.20;2.50;;;14.50;99.90;;;;;;5023301;28;20026;-68
2022/05/20 05:29:07;;;;;;;12.75;2.45;;;14.50;99.90;;;;;;5025723;28;20029;-67
2022/05/20 05:31:35;;;;;;;12.73;2.47;;;14.50;99.90;;;;;;5019149;28;20028;-67
2022/05/20 05:34:03;;;;;;;15.13;3.90;;;14.50;99.90;;;;;;5024466;28;20076;-67
2022/05/20 05:36:30;;;;;;;13.50;2.97;;;14.50;99.90;;;;;;5024159;28;20022;-67
2022/05/20 05:38:58;;;;;;;8.65;2.67;;;14.50;99.90;;;;;;5019877;28;20022;-67
2022/05/20 05:41:25;;;;;;;12.18;3.08;;;14.60;99.90;;;;;;5024449;28;20228;-67
2022/05/20 05:43:52;;;;;;;10.23;3.00;;;14.50;99.90;;;;;;5025198;28;20029;-67
2022/05/20 05:46:20;;;;;;;9.35;2.90;;;14.50;99.90;;;;;;5023648;28;20402;-67
2022/05/20 05:48:47;;;;;;;12.13;3.38;;;14.50;99.90;;;;;;5019329;28;20906;-67
2022/05/20 05:51:14;;;;;;;12.40;2.30;;;14.50;99.90;;;;;;5017659;28;20104;-67
2022/05/20 05:53:41;;;;;;;13.30;2.20;;;14.50;99.90;;;;;;5025418;28;20038;-67
2022/05/20 05:56:09;;;;;;;12.13;2.80;;;14.40;99.90;;;;;;5035417;28;20045;-67
2022/05/20 05:58:40;;;;;;;14.05;2.78;;;14.40;99.90;;;;;;5022507;28;20493;-67
2022/05/20 06:01:07;;;;;;;14.00;2.70;;;14.40;99.90;;;;;;5019250;28;20161;-67
2022/05/20 06:03:35;;;;;;;15.77;3.33;;;14.40;99.90;;;;;;5015679;28;20378;-67
2022/05/20 06:06:02;;;;;;;12.02;3.38;;;14.50;99.90;;;;;;5016762;28;20603;-67
2022/05/20 06:08:30;;;;;;;12.15;3.50;;;14.40;99.90;;;;;;5022383;28;20406;-67
2022/05/20 06:10:57;;;;;;;11.45;3.40;;;14.50;99.90;;;;;;5023875;28;20129;-67
2022/05/20 06:13:30;;;;;;;10.18;3.40;;;14.50;99.90;;;;;;5020028;28;20168;-67
2022/05/20 06:15:57;;;;;;;13.60;3.47;;;14.40;99.90;;;;;;5018093;28;20029;-67
2022/05/20 06:18:26;;;;;;;10.85;4.22;;;14.50;99.90;;;;;;5016619;28;20691;-67
2022/05/20 06:20:54;;;;;;;11.75;2.70;;;14.50;99.90;;;;;;5017437;28;20029;-66
2022/05/20 06:23:21;;;;;;;11.40;2.55;;;14.40;99.90;;;;;;5016803;28;20018;-67
2022/05/20 06:25:49;;;;;;;14.27;4.85;;;14.50;99.90;;;;;;5018049;28;20037;-67
2022/05/20 06:28:18;;;;;;;12.45;3.15;;;14.50;99.90;;;;;;5020330;28;20109;-67
2022/05/20 06:30:46;;;;;;;10.95;2.85;;;14.50;99.90;;;;;;5020031;28;20026;-67
2022/05/20 06:33:14;;;;;;;11.85;3.30;;;14.40;99.90;;;;;;5018551;28;20120;-67
2022/05/20 06:41:12;;;;;;;17.95;4.97;;;14.40;99.90;;;;;;5027591;28;20620;-66
2022/05/20 06:43:39;;;;;;;16.90;4.05;;;14.40;99.90;;;;;;5022010;28;20017;-68
2022/05/20 06:46:08;;;;;;;11.90;3.78;;;14.50;99.90;;;;;;5016615;28;20398;-67
2022/05/20 06:48:55;;;;;;;18.00;5.45;;;14.50;99.90;;;;;;5019523;28;20056;-67
2022/05/20 06:51:29;;;;;;;15.15;3.47;;;14.50;99.90;;;;;;5015988;28;20489;-67
2022/05/20 06:53:59;;;;;;;15.02;4.63;;;14.50;99.90;;;;;;5020430;28;20433;-67
2022/05/20 06:56:29;;;;;;;14.18;4.88;;;14.50;99.90;;;;;;5025789;28;20040;-67
2022/05/20 06:58:57;;;;;;;19.90;5.43;;;14.50;99.90;;;;;;5016013;28;20034;-68
2022/05/20 07:01:25;;;;;;;14.20;4.50;;;14.50;99.90;;;;;;5024782;28;20036;-67
2022/05/20 07:03:53;;;;;;;16.45;4.85;;;14.50;99.90;;;;;;5018881;28;20103;-67
2022/05/20 07:06:21;;;;;;;17.33;4.97;;;14.60;99.90;;;;;;5016319;28;20389;-67
2022/05/20 07:08:49;;;;;;;22.65;5.30;;;14.50;99.90;;;;;;5022596;28;20057;-67
2022/05/20 07:11:18;;;;;;;13.25;4.32;;;14.50;99.90;;;;;;5026871;28;20540;-67
2022/05/20 07:13:47;;;;;;;13.38;3.50;;;14.50;99.90;;;;;;5016654;28;20026;-67
2022/05/20 07:16:15;;;;;;;15.55;4.45;;;14.40;99.90;;;;;;5016685;28;20029;-67
2022/05/20 07:18:42;;;;;;;23.50;6.75;;;14.40;99.90;;;;;;5015170;28;20026;-67
2022/05/20 07:21:09;;;;;;;21.95;4.18;;;14.40;99.90;;;;;;5025115;28;20018;-68
2022/05/20 07:23:36;;;;;;;18.58;3.63;;;14.40;99.90;;;;;;5023998;28;20168;-67
2022/05/20 07:26:04;;;;;;;17.40;3.78;;;14.40;99.90;;;;;;5016883;28;20061;-67
2022/05/20 07:28:32;;;;;;;13.57;3.97;;;14.40;99.90;;;;;;5020377;28;20029;-67
2022/05/20 07:30:59;;;;;;;14.98;4.32;;;14.30;99.90;;;;;;5020221;28;20406;-67
2022/05/20 07:33:28;;;;;;;16.85;3.47;;;14.40;99.90;;;;;;5020571;28;20021;-67
2022/05/20 07:35:56;;;;;;;16.83;4.28;;;14.30;99.90;;;;;;5019850;28;20026;-67
2022/05/20 07:38:24;;;;;;;16.85;3.58;;;14.30;99.90;;;;;;5017639;28;20033;-67
2022/05/20 07:40:51;;;;;;;16.45;2.95;;;14.20;99.90;;;;;;5022747;28;20021;-68
2022/05/20 07:43:20;;;;;;;14.90;3.65;;;14.30;99.90;;;;;;5025292;28;20095;-68
2022/05/20 07:45:49;;;;;;;15.80;4.18;;;14.20;99.90;;;;;;5020507;28;20021;-68
2022/05/20 07:48:17;;;;;;;15.82;3.08;;;14.30;99.90;;;;;;5020646;28;20026;-68
2022/05/20 07:50:46;;;;;;;19.55;4.88;;;14.20;99.90;;;;;;5022352;28;20068;-68
2022/05/20 07:53:20;;;;;;;15.13;3.70;;;14.30;99.90;;;;;;5022919;28;20494;-67
2022/05/20 07:55:54;;;;;;;11.13;3.13;;;14.20;99.90;;;;;;5024811;28;20104;-67
2022/05/20 07:58:28;;;;;;;8.68;2.67;;;14.30;99.90;;;;;;5017777;28;20361;-68
2022/05/20 08:00:59;;;;;;;11.20;2.60;;;14.20;99.90;;;;;;5023939;28;20168;-68
2022/05/20 08:06:15;;;;;;;9.63;1.90;;;14.20;99.90;;;;;;5028273;28;20083;-68
2022/05/20 08:08:42;;;;;;;9.30;2.83;;;14.20;99.90;;;;;;5017755;28;20120;-69
2022/05/20 08:11:10;;;;;;;13.75;5.20;;;14.20;99.90;;;;;;5018218;28;20026;-68
2022/05/20 08:13:37;;;;;;;14.93;5.43;;;14.20;99.90;;;;;;5015967;28;20014;-68
2022/05/20 08:16:05;;;;;;;13.00;3.92;;;14.10;99.90;;;;;;5030767;28;20033;-67
2022/05/20 08:18:32;;;;;;;13.60;4.50;;;14.20;99.90;;;;;;5012881;28;20018;-68
2022/05/20 08:21:00;;;;;;;19.40;5.75;;;14.10;99.90;;;;;;5023966;28;20037;-68
2022/05/20 08:23:28;;;;;;;13.40;5.28;;;14.00;99.90;;;;;;5015417;28;20624;-68
2022/05/20 08:25:55;;;;;;;15.27;3.67;;;14.10;99.90;;;;;;5015595;28;20156;-68
2022/05/20 08:28:23;;;;;;;13.95;2.10;;;14.10;99.90;;;;;;5022093;28;20040;-68
2022/05/20 08:30:50;;;;;;;14.80;3.40;;;14.00;99.90;;;;;;5030257;28;20389;-69
2022/05/20 08:33:17;;;;;;;11.77;3.25;;;14.00;99.90;;;;;;5027651;28;20036;-69
2022/05/20 08:35:45;;;;;;;13.48;2.55;;;14.00;99.90;;;;;;5032719;28;20493;-68
2022/05/20 08:38:12;;;;;;;16.98;4.43;;;14.00;99.90;;;;;;5021640;28;20054;-68
2022/05/20 08:40:49;;;;;;;12.85;3.40;;;14.00;99.90;;;;;;5013245;28;20026;-69
2022/05/20 08:43:21;;;;;;;16.27;3.42;;;14.00;99.90;;;;;;5023060;28;20075;-69
2022/05/20 08:45:48;;;;;;;15.43;3.50;;;14.00;99.90;;;;;;5027813;28;20036;-69
2022/05/20 08:48:16;;;;;;;17.58;3.78;;;14.00;99.90;;;;;;5026003;28;20048;-69
2022/05/20 08:50:48;;;;;;;16.40;2.92;;;13.90;99.90;;;;;;5022035;28;20083;-69
2022/05/20 08:53:22;;;;;;;13.48;3.25;;;13.90;99.90;;;;;;5014580;28;20453;-68
2022/05/20 08:55:50;;;;;;;17.70;4.03;;;13.90;99.90;;;;;;5019635;28;20040;-68
2022/05/20 08:58:22;;;;;;;18.27;3.65;;;13.90;99.90;;;;;;5028655;28;20112;-69
2022/05/20 09:00:49;;;;;;;10.55;3.28;;;13.90;99.90;;;;;;5032371;28;20018;-69
2022/05/20 09:03:17;;;;;;;17.55;3.67;;;13.90;99.90;;;;;;5029389;28;20116;-68
2022/05/20 09:05:46;;;;;;;17.38;3.38;;;13.90;99.90;;;;;;5028181;28;20093;-69
2022/05/20 09:08:28;;;;;;;13.98;3.72;;;13.90;99.90;;;;;;5017658;28;20113;-68
2022/05/20 09:10:58;;;;;;;19.48;5.25;;;13.80;99.90;;;;;;5021877;28;20091;-68
2022/05/20 09:16:28;;;;;;;22.42;5.85;;;13.80;99.90;;;;;;5016650;28;20401;-68
2022/05/20 09:19:30;;;;;;;15.10;7.03;;;13.80;99.90;;;;;;5023928;28;20032;-69
2022/05/20 09:22:12;;;;;;;17.13;7.05;;;13.70;99.90;;;;;;5017168;28;20014;-68
2022/05/20 09:24:45;;;;;;;17.45;5.22;;;13.70;99.90;;;;;;5021384;28;20026;-69
2022/05/20 09:27:17;;;;;;;15.90;4.35;;;13.70;99.90;;;;;;5016619;28;20406;-68
2022/05/20 09:30:00;;;;;;;23.63;7.35;;;13.70;99.90;;;;;;5016220;28;20470;-68
2022/05/20 09:32:36;;;;;;;22.33;8.07;;;13.60;99.90;;;;;;5024242;28;20040;-68
2022/05/20 09:35:08;;;;;;;18.23;5.63;;;13.70;99.90;;;;;;5016309;28;20026;-68
2022/05/20 09:37:36;;;;;;;18.25;5.15;;;13.60;99.90;;;;;;5022783;28;20030;-67
2022/05/20 09:40:41;;;;;;;16.40;5.32;;;13.60;99.90;;;;;;5028883;28;20433;-67
2022/05/20 09:43:30;;;;;;;22.05;5.55;;;13.70;99.90;;;;;;5016536;28;20057;-68
2022/05/20 09:46:00;;;;;;;20.75;6.15;;;13.60;99.90;;;;;;5015795;28;20030;-68
2022/05/20 09:48:45;;;;;;;17.05;7.10;;;13.70;99.90;;;;;;5016107;28;20040;-68
2022/05/20 09:51:21;;;;;;;52.92;7.95;;;13.60;99.90;;;;;;5024902;28;20025;-68
2022/05/20 09:54:14;;;;;;;14.73;5.35;;;13.60;99.90;;;;;;5029154;28;20076;-68
2022/05/20 09:57:10;;;;;;;15.80;5.68;;;13.50;99.90;;;;;;5020216;28;20032;-68
2022/05/20 09:59:55;;;;;;;17.77;9.00;;;13.40;99.90;;;;;;5035304;28;20032;-68
2022/05/20 10:02:56;;;;;;;23.27;6.25;;;13.40;99.90;;;;;;5021452;28;20026;-68
2022/05/20 10:05:32;;;;;;;16.45;4.53;;;13.40;99.90;;;;;;5019184;28;20084;-68
2022/05/20 10:08:26;;;;;;;18.05;5.80;;;13.50;99.90;;;;;;5022852;28;20038;-68
2022/05/20 10:11:14;;;;;;;13.57;5.00;;;13.50;99.90;;;;;;5019672;28;20107;-68
2022/05/20 10:14:01;;;;;;;15.70;5.70;;;13.50;99.90;;;;;;5033843;28;20021;-68
2022/05/20 10:17:03;;;;;;;15.07;4.82;;;13.50;99.90;;;;;;5029734;28;20025;-68
2022/05/20 10:19:52;;;;;;;18.08;5.57;;;13.50;99.90;;;;;;5017994;28;20029;-68
2022/05/20 10:22:40;;;;;;;15.55;5.75;;;13.40;99.90;;;;;;5027253;28;20073;-68
2022/05/20 10:25:24;;;;;;;13.90;5.00;;;13.40;99.90;;;;;;5028358;28;20044;-68
2022/05/20 10:28:00;;;;;;;11.00;5.70;;;13.50;99.90;;;;;;5019698;28;20030;-68
2022/05/20 10:33:39;;;;;;;16.35;5.97;;;13.50;99.90;;;;;;5020757;28;20032;-68
2022/05/20 10:36:36;;;;;;;17.90;7.10;;;13.40;99.90;;;;;;5023127;28;20117;-68
2022/05/20 10:39:18;;;;;;;13.55;5.40;;;13.50;99.90;;;;;;5016444;28;20057;-69
2022/05/20 10:42:13;;;;;;;15.32;5.45;;;13.40;99.90;;;;;;5014838;28;20049;-68
2022/05/20 10:48:46;;;;;;;10.10;5.18;;;13.50;99.90;;;;;;5048655;28;20088;-68
2022/05/20 10:51:34;;;;;;;15.95;6.53;;;13.50;99.90;;;;;;5031087;28;20030;-68
2022/05/20 10:54:42;;;;;;;15.52;6.13;;;13.40;99.90;;;;;;5014559;28;20045;-68
2022/05/20 10:57:23;;;;;;;18.08;5.90;;;13.40;99.90;;;;;;5022265;28;20045;-68
2022/05/20 11:00:19;;;;;;;21.25;6.50;;;13.40;99.90;;;;;;5034597;28;20025;-68
2022/05/20 11:03:19;;;;;;;12.80;4.60;;;13.40;99.90;;;;;;5031252;28;20103;-68
2022/05/20 11:06:22;;;;;;;11.82;4.50;;;13.40;99.90;;;;;;5029766;28;20068;-69
2022/05/20 11:09:05;;;;;;;18.98;5.28;;;13.40;99.90;;;;;;5012328;28;20424;-68
2022/05/20 11:11:34;;;;;;;14.93;5.28;;;13.40;99.90;;;;;;5015846;28;20036;-68
2022/05/20 11:14:20;;;;;;;15.55;6.00;;;13.30;99.90;;;;;;5019714;28;20192;-68
2022/05/20 11:17:02;;;;;;;16.35;5.20;;;13.30;99.90;;;;;;5031895;28;20025;-68
2022/05/20 11:19:59;;;;;;;14.23;4.93;;;13.40;99.90;;;;;;5016629;28;20048;-67
2022/05/20 11:22:35;;;;;;;17.92;6.18;;;13.50;99.90;;;;;;5017436;28;20088;-68
2022/05/20 11:25:20;;;;;;;21.17;5.68;;;13.50;99.90;;;;;;5015910;28;20025;-68
2022/05/20 11:28:24;;;;;;;24.13;6.35;;;13.70;99.90;;;;;;5022789;28;20113;-68
2022/05/20 11:31:19;;;;;;;14.85;2.30;;;13.70;99.90;;;;;;5016935;28;20029;-68
2022/05/20 11:33:49;;;;;;;;;;;13.70;99.90;;;;;;5017894;28;20132;-68
2022/05/20 11:36:25;;;;;;;15.95;3.45;;;13.70;99.90;;;;;;5023980;28;19958;-68
2022/05/20 11:39:09;;;;;;;12.40;3.00;;;13.70;99.90;;;;;;5026312;28;20030;-69
2022/05/20 11:41:58;;;;;;;14.53;3.87;;;13.70;99.90;;;;;;5025362;28;20513;-68
2022/05/20 11:45:11;;;;;;;18.25;3.95;;;13.60;99.90;;;;;;5017737;28;20018;-68
2022/05/20 11:47:44;;;;;;;20.42;4.53;;;13.60;99.90;;;;;;5016848;28;20398;-68
2022/05/20 11:50:23;;;;;;;17.65;4.25;;;13.60;99.90;;;;;;5029253;28;20026;-68
2022/05/20 11:53:01;;;;;;;12.45;2.47;;;13.60;99.90;;;;;;5021070;28;20045;-67
2022/05/20 11:55:47;;;;;;;20.35;2.65;;;13.70;99.90;;;;;;5020229;28;20057;-68
2022/05/20 11:58:54;;;;;;;15.68;3.05;;;13.70;99.90;;;;;;5019716;28;20034;-68
2022/05/20 12:01:22;;;;;;;18.70;3.75;;;13.70;99.90;;;;;;5018936;28;20018;-69
2022/05/20 12:04:08;;;;;;;12.00;3.08;;;13.80;99.90;;;;;;5029978;28;20022;-68
2022/05/20 12:06:49;;;;;;;17.05;3.22;;;13.80;99.90;;;;;;5025683;28;20029;-68
2022/05/20 12:09:42;;;;;;;18.00;3.83;;;13.70;99.90;;;;;;5020101;28;20117;-68
2022/05/20 12:12:09;;;;;;;13.25;4.90;;;13.70;99.90;;;;;;5013957;28;20435;-68
2022/05/20 12:14:58;;;;;;;16.77;4.85;;;13.70;99.90;;;;;;5022802;28;20029;-69
2022/05/20 12:17:48;;;;;;;16.20;5.07;;;13.60;99.90;;;;;;5028737;28;20021;-68
2022/05/20 12:26:22;;;;;;;15.90;4.05;;;13.40;99.90;;;;;;5016807;28;20540;-69
2022/05/20 12:28:50;;;;;;;11.68;3.90;;;13.40;99.90;;;;;;5017484;28;20477;-68
2022/05/20 12:31:22;;;;;;;12.30;4.53;;;13.40;99.90;;;;;;5018421;28;20022;-68
2022/05/20 12:34:10;;;;;;;14.93;4.00;;;13.20;99.90;;;;;;5023763;28;20025;-68
2022/05/20 12:36:41;;;;;;;12.77;4.13;;;13.20;99.90;;;;;;5017926;28;20049;-68
2022/05/20 12:39:08;;;;;;;12.50;3.80;;;13.20;99.90;;;;;;5024583;28;20028;-68
2022/05/20 12:41:45;;;;;;;11.15;5.53;;;13.20;99.90;;;;;;5021732;28;20044;-68
2022/05/20 12:44:19;;;;;;;20.02;5.93;;;13.20;99.90;;;;;;5019587;28;20034;-68
2022/05/20 12:46:52;;;;;;;11.60;5.10;;;13.20;99.90;;;;;;5026324;28;20025;-68
2022/05/20 12:49:25;;;;;;;15.45;4.65;;;13.20;99.90;;;;;;5022320;28;20045;-68
2022/05/20 12:51:54;;;;;;;12.68;4.43;;;13.10;99.90;;;;;;5021944;28;20038;-68
2022/05/20 12:54:26;;;;;;;15.80;4.38;;;13.10;99.90;;;;;;5016959;28;20032;-67
2022/05/20 12:57:06;;;;;;;14.63;5.00;;;13.10;99.90;;;;;;5019776;28;20021;-68
2022/05/20 12:59:33;;;;;;;15.10;5.25;;;13.10;99.90;;;;;;5027924;28;20371;-68
2022/05/20 13:02:06;;;;;;;11.55;4.50;;;13.00;99.90;;;;;;5024229;28;20038;-68
2022/05/20 13:04:40;;;;;;;19.35;5.15;;;13.00;99.90;;;;;;5017196;28;20394;-68
2022/05/20 13:07:12;;;;;;;21.30;4.88;;;13.00;99.90;;;;;;5019311;28;20440;-68
2022/05/20 13:09:42;;;;;;;14.63;6.47;;;13.00;99.90;;;;;;5021412;28;20034;-68
2022/05/20 13:12:18;;;;;;;13.20;5.22;;;13.00;99.90;;;;;;5029419;28;20092;-68
2022/05/20 13:14:55;;;;;;;12.07;4.95;;;13.00;99.90;;;;;;5021415;28;20026;-68
2022/05/20 13:17:23;;;;;;;12.63;5.13;;;13.00;99.90;;;;;;5026916;28;20393;-68
2022/05/20 13:19:55;;;;;;;17.83;4.90;;;13.00;99.90;;;;;;5014937;28;20117;-68
2022/05/20 13:22:26;;;;;;;12.35;4.85;;;12.90;99.90;;;;;;5023283;28;20509;-68
2022/05/20 13:25:09;;;;;;;15.13;5.35;;;12.90;99.90;;;;;;5025518;28;20040;-69
2022/05/20 13:27:46;;;;;;;14.07;4.38;;;13.00;99.90;;;;;;5023013;28;20136;-68
2022/05/20 13:30:21;;;;;;;12.07;4.97;;;12.90;99.90;;;;;;5018564;28;20030;-68
2022/05/20 13:32:48;;;;;;;12.18;5.10;;;12.90;99.90;;;;;;5026227;28;20509;-68
2022/05/20 13:35:15;;;;;;;12.85;6.20;;;13.00;99.90;;;;;;5028540;28;20105;-68
2022/05/20 13:38:01;;;;;;;11.32;4.43;;;13.00;99.90;;;;;;5028266;28;20030;-68
2022/05/20 13:40:40;;;;;;;13.80;5.18;;;13.10;99.90;;;;;;5024459;28;20083;-69
2022/05/20 13:43:12;;;;;;;12.65;3.92;;;13.00;99.90;;;;;;5024596;28;20026;-68
2022/05/20 13:51:33;;;;;;;12.05;4.70;;;12.90;99.90;;;;;;5030761;28;20488;-68
2022/05/20 13:54:06;;;;;;;17.05;5.28;;;12.90;99.90;;;;;;5031297;28;20033;-68
2022/05/20 13:56:36;;;;;;;15.70;4.57;;;12.90;99.90;;;;;;5029096;28;20064;-68
2022/05/20 13:59:17;;;;;;;11.70;5.15;;;12.90;99.90;;;;;;5033864;28;20026;-68